Time;durP1;ratioP1;P1;durP2;ratioP2;P2;SDS_P1;SDS_P2;PMS_P1;PMS_P2;Temp;Humidity;BMP_temperature;BMP_pressure;BME280_temperature;BME280_humidity;BME280_pressure;Samples;Min_cycle;Max_cycle;Signal;HPM_P1;HPM_P2
2023/03/09 00:02:04;;;;;;;14.05;7.43;;;;;;;-1.76;100.00;98890.00;5046894;28;20036;-70
2023/03/09 00:04:30;;;;;;;16.13;7.55;;;;;;;-1.72;100.00;98894.03;5047130;28;20078;-71
2023/03/09 00:06:56;;;;;;;13.50;6.47;;;;;;;-1.73;100.00;98898.44;5028114;28;20024;-70
2023/03/09 00:09:21;;;;;;;13.95;6.32;;;;;;;-1.72;100.00;98894.03;5046860;28;20571;-71
2023/03/09 00:11:48;;;;;;;17.08;6.97;;;;;;;-1.76;100.00;98882.97;5046716;28;20474;-75
2023/03/09 00:14:15;;;;;;;14.45;7.68;;;;;;;-1.74;100.00;98888.09;5046871;28;20025;-70
2023/03/09 00:16:40;;;;;;;12.50;6.80;;;;;;;-1.73;100.00;98887.97;5028867;28;20120;-70
2023/03/09 00:19:06;;;;;;;18.40;7.82;;;;;;;-1.74;100.00;98901.16;5046800;28;20194;-71
2023/03/09 00:21:40;;;;;;;16.00;7.57;;;;;;;-1.72;100.00;98913.16;5046397;28;20044;-74
2023/03/09 00:24:12;;;;;;;13.13;6.95;;;;;;;-1.68;100.00;98926.81;5046610;28;20543;-71
2023/03/09 00:26:40;;;;;;;14.25;7.25;;;;;;;-1.62;100.00;98933.31;5046188;28;20032;-73
2023/03/09 00:29:12;;;;;;;14.32;6.68;;;;;;;-1.58;100.00;98938.16;5045260;28;20071;-72
2023/03/09 00:31:37;;;;;;;15.73;7.03;;;;;;;-1.61;100.00;98935.81;5027008;28;20028;-73
2023/03/09 00:34:04;;;;;;;12.43;6.35;;;;;;;-1.61;100.00;98935.81;5028608;28;20067;-71
2023/03/09 00:36:29;;;;;;;25.23;8.18;;;;;;;-1.63;100.00;98932.50;5011933;28;20477;-71
2023/03/09 00:38:57;;;;;;;14.70;7.20;;;;;;;-1.58;100.00;98934.72;5021600;28;20074;-71
2023/03/09 00:41:26;;;;;;;18.50;7.10;;;;;;;-1.66;100.00;98930.16;5027804;28;20036;-71
2023/03/09 00:43:52;;;;;;;15.07;6.60;;;;;;;-1.67;100.00;98935.50;5028294;28;20811;-73
2023/03/09 00:46:18;;;;;;;15.25;7.13;;;;;;;-1.65;100.00;98933.59;5028158;28;20033;-72
2023/03/09 00:48:43;;;;;;;17.50;6.93;;;;;;;-1.70;100.00;98926.13;5045222;28;20029;-71
2023/03/09 00:51:09;;;;;;;17.50;8.10;;;;;;;-1.69;100.00;98927.75;5028104;28;20033;-71
2023/03/09 00:53:36;;;;;;;18.33;8.85;;;;;;;-1.60;100.00;98934.03;5044834;28;20047;-71
2023/03/09 00:56:04;;;;;;;15.38;7.90;;;;;;;-1.57;100.00;98933.75;5045846;28;20136;-73
2023/03/09 00:58:29;;;;;;;15.20;7.43;;;;;;;-1.60;100.00;98932.22;5043385;28;20119;-70
2023/03/09 01:00:55;;;;;;;17.25;7.60;;;;;;;-1.65;100.00;98920.50;5026342;28;20111;-71
2023/03/09 01:03:20;;;;;;;18.10;7.75;;;;;;;-1.71;100.00;98909.59;5046028;28;20107;-71
2023/03/09 01:05:45;;;;;;;16.52;7.50;;;;;;;-1.74;100.00;98911.63;5044277;28;20037;-70
2023/03/09 01:08:11;;;;;;;14.65;7.55;;;;;;;-1.74;100.00;98907.22;5028156;28;20036;-71
2023/03/09 01:10:41;;;;;;;12.68;7.28;;;;;;;-1.73;100.00;98913.31;5044147;28;20128;-72
2023/03/09 01:13:07;;;;;;;15.80;7.38;;;;;;;-1.78;100.00;98910.22;5045425;28;20075;-73
2023/03/09 01:15:32;;;;;;;16.42;7.32;;;;;;;-1.81;100.00;98903.47;5045568;28;20079;-74
2023/03/09 01:17:58;;;;;;;19.15;7.75;;;;;;;-1.79;100.00;98909.41;5045517;28;20033;-71
2023/03/09 01:20:23;;;;;;;16.02;7.47;;;;;;;-1.80;100.00;98902.53;5044106;28;20599;-71
2023/03/09 01:22:49;;;;;;;13.80;6.95;;;;;;;-1.84;100.00;98895.06;5026624;28;20033;-72
2023/03/09 01:25:14;;;;;;;16.65;7.15;;;;;;;-1.87;100.00;98890.91;5027467;28;20115;-71
2023/03/09 01:27:40;;;;;;;15.55;7.03;;;;;;;-1.91;100.00;98884.28;5025644;28;20118;-71
2023/03/09 01:30:06;;;;;;;17.10;7.82;;;;;;;-1.96;100.00;98878.59;5043096;28;20421;-71
2023/03/09 01:32:31;;;;;;;14.13;7.05;;;;;;;-1.99;100.00;98871.84;5023815;28;20044;-73
2023/03/09 01:34:57;;;;;;;16.65;7.82;;;;;;;-2.04;100.00;98878.41;5027201;28;20025;-74
2023/03/09 01:37:23;;;;;;;20.60;7.70;;;;;;;-2.11;100.00;98872.84;5043070;28;20279;-71
2023/03/09 01:39:48;;;;;;;17.85;9.23;;;;;;;-2.20;100.00;98874.47;5027579;28;20127;-72
2023/03/09 01:42:13;;;;;;;15.90;6.63;;;;;;;-2.18;100.00;98879.56;5043834;28;20127;-71
2023/03/09 01:44:39;;;;;;;16.38;8.60;;;;;;;-2.15;100.00;98897.63;5045067;28;20040;-71
2023/03/09 01:47:05;;;;;;;14.75;7.15;;;;;;;-2.18;100.00;98903.94;5027123;28;20091;-72
2023/03/09 01:49:50;;;;;;;19.60;8.20;;;;;;;-2.18;100.00;98918.75;5042724;28;20033;-70
2023/03/09 01:52:26;;;;;;;15.02;7.03;;;;;;;-2.22;100.00;98918.19;5043767;28;20032;-72
2023/03/09 01:55:04;;;;;;;15.40;7.30;;;;;;;-2.24;100.00;98919.28;5043492;28;20041;-72
2023/03/09 01:57:42;;;;;;;15.73;8.38;;;;;;;-2.29;100.00;98927.50;5044008;28;20037;-71
2023/03/09 02:00:26;;;;;;;14.40;7.43;;;;;;;-2.33;100.00;98932.13;5027393;28;20042;-73
2023/03/09 02:03:10;;;;;;;17.55;8.38;;;;;;;-2.33;100.00;98941.78;5026129;28;20098;-73
2023/03/09 02:05:47;;;;;;;16.77;8.00;;;;;;;-2.34;100.00;98953.19;5010615;28;20033;-72
2023/03/09 02:08:17;;;;;;;17.95;8.55;;;;;;;-2.33;100.00;98960.06;5043779;28;20246;-70
2023/03/09 02:10:50;;;;;;;17.88;8.02;;;;;;;-2.37;100.00;98962.09;5026901;28;20040;-71
2023/03/09 02:13:20;;;;;;;16.88;8.68;;;;;;;-2.39;100.00;98957.94;5027036;28;20048;-72
2023/03/09 02:15:49;;;;;;;22.58;9.45;;;;;;;-2.31;100.00;98965.19;5024665;28;20040;-73
2023/03/09 02:18:14;;;;;;;17.30;9.48;;;;;;;-2.33;100.00;98976.56;5027177;28;20079;-71
2023/03/09 02:21:22;;;;;;;17.33;9.00;;;;;;;-2.39;100.00;98973.63;5043486;28;20119;-71
2023/03/09 02:24:05;;;;;;;17.15;7.32;;;;;;;-2.41;100.00;98972.91;5043537;28;20040;-71
2023/03/09 02:26:45;;;;;;;17.85;9.02;;;;;;;-2.41;100.00;98967.69;5026627;28;20025;-73
2023/03/09 02:29:13;;;;;;;20.45;9.00;;;;;;;-2.45;100.00;98964.50;5022383;28;20036;-72
2023/03/09 02:31:38;;;;;;;16.33;8.13;;;;;;;-2.39;100.00;98984.06;5028284;28;20034;-71
2023/03/09 02:34:04;;;;;;;24.30;9.18;;;;;;;-2.39;100.00;98986.69;5030962;28;20033;-71
2023/03/09 02:36:29;;;;;;;26.75;9.63;;;;;;;-2.39;100.00;98989.31;5030622;28;20025;-71
2023/03/09 02:39:20;;;;;;;22.23;8.48;;;;;;;-2.41;100.00;98986.84;5031005;28;20447;-74
2023/03/09 02:41:46;;;;;;;22.27;9.63;;;;;;;-2.38;100.00;98991.81;5030151;28;20139;-74
2023/03/09 02:44:16;;;;;;;20.45;8.55;;;;;;;-2.36;100.00;99002.16;5030610;28;20934;-71
2023/03/09 02:46:41;;;;;;;22.17;9.15;;;;;;;-2.34;100.00;99003.69;5048066;28;20045;-74
2023/03/09 02:49:07;;;;;;;19.38;9.48;;;;;;;-2.35;100.00;98995.94;5048671;28;20087;-72
2023/03/09 02:51:32;;;;;;;22.25;8.75;;;;;;;-2.31;100.00;99007.00;5043320;28;20028;-71
2023/03/09 02:53:58;;;;;;;19.27;9.80;;;;;;;-2.30;100.00;99004.25;5056187;28;20035;-70
2023/03/09 02:56:23;;;;;;;19.63;8.80;;;;;;;-2.29;100.00;99005.94;5028711;28;20056;-71
2023/03/09 02:58:49;;;;;;;19.83;9.30;;;;;;;-2.29;100.00;99011.16;5047085;28;20029;-71
2023/03/09 03:01:17;;;;;;;17.77;8.60;;;;;;;-2.30;100.00;99004.25;5046853;28;20389;-72
2023/03/09 03:03:42;;;;;;;18.38;8.48;;;;;;;-2.27;100.00;99006.63;5014210;28;20025;-71
2023/03/09 03:06:07;;;;;;;17.83;8.18;;;;;;;-2.27;100.00;99011.88;5046970;28;20028;-71
2023/03/09 03:08:35;;;;;;;16.98;8.23;;;;;;;-2.24;100.00;99013.41;5046683;28;20047;-73
2023/03/09 03:11:01;;;;;;;19.75;9.23;;;;;;;-2.25;100.00;99015.16;5046774;28;20090;-71
2023/03/09 03:13:27;;;;;;;22.77;9.00;;;;;;;-2.23;100.00;99008.03;5048145;28;20039;-75
2023/03/09 03:16:00;;;;;;;19.05;8.93;;;;;;;-2.16;100.00;99016.22;5046775;28;20104;-71
2023/03/09 03:18:26;;;;;;;16.73;7.72;;;;;;;-2.17;100.00;99010.16;5030265;28;20048;-72
2023/03/09 03:20:51;;;;;;;16.75;8.02;;;;;;;-2.13;100.00;99016.81;5046497;28;20041;-74
2023/03/09 03:23:17;;;;;;;19.33;7.78;;;;;;;-2.14;100.00;99009.91;5030104;28;20521;-72
2023/03/09 03:25:48;;;;;;;16.88;8.30;;;;;;;-2.12;100.00;99018.47;5046472;28;20376;-71
2023/03/09 03:28:14;;;;;;;18.38;8.02;;;;;;;-2.11;100.00;99008.81;5046506;28;20545;-71
2023/03/09 03:30:40;;;;;;;18.38;7.72;;;;;;;-2.11;100.00;99021.91;5046486;28;20124;-74
2023/03/09 03:33:05;;;;;;;18.20;9.23;;;;;;;-2.09;100.00;99021.78;5030196;28;20040;-71
2023/03/09 03:35:33;;;;;;;17.52;8.02;;;;;;;-2.10;100.00;99025.38;5046134;28;20043;-71
2023/03/09 03:37:59;;;;;;;18.58;8.73;;;;;;;-2.11;100.00;99016.66;5030059;28;20021;-71
2023/03/09 03:40:26;;;;;;;16.63;7.45;;;;;;;-2.13;100.00;99011.59;5029718;28;20025;-71
2023/03/09 03:42:53;;;;;;;14.80;7.82;;;;;;;-2.15;100.00;99013.50;5029763;28;20033;-70
2023/03/09 03:45:19;;;;;;;16.35;7.78;;;;;;;-2.13;100.00;99013.38;5029492;28;20394;-71
2023/03/09 03:47:45;;;;;;;18.30;7.82;;;;;;;-2.16;100.00;99017.03;5029716;28;20063;-71
2023/03/09 03:50:10;;;;;;;20.08;8.60;;;;;;;-2.16;100.00;99013.59;5029571;28;20028;-71
2023/03/09 03:52:44;;;;;;;18.83;7.13;;;;;;;-2.17;100.00;99018.00;5029443;28;20060;-70
2023/03/09 03:55:09;;;;;;;14.52;7.30;;;;;;;-2.17;100.00;99018.00;5012986;28;20130;-70
2023/03/09 03:57:35;;;;;;;;;;;;;;;-2.19;100.00;99022.53;5029987;28;20079;-71
2023/03/09 04:00:06;;;;;;;13.55;6.53;;;;;;;-2.21;100.00;99016.59;5029695;28;20603;-73
2023/03/09 04:02:38;;;;;;;18.60;8.68;;;;;;;-2.20;100.00;99025.25;5046843;28;20041;-74
2023/03/09 04:05:05;;;;;;;16.63;7.45;;;;;;;-2.25;100.00;99022.19;5029076;28;20025;-71
2023/03/09 04:07:31;;;;;;;16.90;6.45;;;;;;;-2.22;100.00;99019.34;5029544;28;20135;-74
2023/03/09 04:09:56;;;;;;;15.20;6.97;;;;;;;-2.23;100.00;99015.88;5039044;28;20028;-74
2023/03/09 04:12:22;;;;;;;19.45;8.05;;;;;;;-2.24;100.00;99010.78;5045588;28;20036;-70
2023/03/09 04:14:48;;;;;;;18.85;6.90;;;;;;;-2.24;100.00;99013.41;5029040;28;20044;-74
2023/03/09 04:17:13;;;;;;;19.83;7.28;;;;;;;-2.25;100.00;99011.72;5029050;28;20021;-70
2023/03/09 04:19:39;;;;;;;14.00;6.53;;;;;;;-2.30;100.00;99006.03;5045635;28;20116;-73
2023/03/09 04:22:05;;;;;;;12.30;5.95;;;;;;;-2.30;100.00;99006.88;5045505;28;20024;-71
2023/03/09 04:24:31;;;;;;;15.10;7.10;;;;;;;-2.35;100.00;99006.41;5028763;28;20056;-74
2023/03/09 04:26:57;;;;;;;13.02;7.05;;;;;;;-2.39;100.00;99005.00;5046802;28;20057;-73
2023/03/09 04:29:43;;;;;;;20.10;8.52;;;;;;;-2.43;100.00;99008.81;5045625;28;20044;-72
2023/03/09 04:32:11;;;;;;;14.10;6.22;;;;;;;-2.44;100.00;99001.91;5045279;28;20897;-75
2023/03/09 04:34:37;;;;;;;13.02;7.20;;;;;;;-2.44;100.00;99007.16;5028541;28;20048;-74
2023/03/09 04:37:03;;;;;;;12.93;6.57;;;;;;;-2.48;100.00;99001.34;5046175;28;20032;-71
2023/03/09 04:39:28;;;;;;;12.75;6.50;;;;;;;-2.50;100.00;99005.03;5028825;28;20037;-72
2023/03/09 04:41:54;;;;;;;11.07;6.40;;;;;;;-2.50;100.00;99002.44;5028501;28;20036;-73
2023/03/09 04:44:20;;;;;;;12.85;5.65;;;;;;;-2.53;100.00;99002.66;5045336;28;20461;-71
2023/03/09 04:46:46;;;;;;;17.98;7.65;;;;;;;-2.59;100.00;98994.34;5028606;28;20079;-72
2023/03/09 04:49:12;;;;;;;16.30;7.82;;;;;;;-2.60;100.00;99005.75;5045276;28;20086;-71
2023/03/09 04:51:40;;;;;;;12.75;6.25;;;;;;;-2.63;100.00;98997.31;5044541;28;20028;-72
2023/03/09 04:54:05;;;;;;;14.45;7.63;;;;;;;-2.64;100.00;99001.72;5045926;28;20808;-70
2023/03/09 04:56:31;;;;;;;12.25;6.13;;;;;;;-2.66;100.00;99002.81;5044532;28;20849;-73
2023/03/09 04:59:03;;;;;;;17.00;6.25;;;;;;;-2.64;100.00;99008.75;5045111;28;20029;-71
2023/03/09 05:01:29;;;;;;;16.67;6.35;;;;;;;-2.63;100.00;99013.00;5027814;28;20040;-71
2023/03/09 05:03:57;;;;;;;19.60;6.90;;;;;;;-2.60;100.00;99023.19;5028495;28;20032;-73
2023/03/09 05:06:23;;;;;;;16.55;7.05;;;;;;;-2.63;100.00;99026.06;5044536;28;20017;-71
2023/03/09 05:08:50;;;;;;;18.55;6.82;;;;;;;-2.63;100.00;99024.28;5027724;28;20060;-74
2023/03/09 05:11:16;;;;;;;14.73;5.97;;;;;;;-2.60;100.00;99031.03;5044447;28;20109;-70
2023/03/09 05:13:43;;;;;;;14.15;6.13;;;;;;;-2.60;100.00;99031.91;5044600;28;20033;-70
2023/03/09 05:16:13;;;;;;;12.27;6.68;;;;;;;-2.61;100.00;99037.22;5044531;28;20529;-71
2023/03/09 05:18:42;;;;;;;13.95;5.32;;;;;;;-2.59;100.00;99035.31;5028161;28;20124;-71
2023/03/09 05:21:08;;;;;;;11.05;5.38;;;;;;;-2.61;100.00;99032.00;5044376;28;20104;-70
2023/03/09 05:23:35;;;;;;;11.25;5.25;;;;;;;-2.58;100.00;99036.97;5027954;28;20029;-71
2023/03/09 05:26:02;;;;;;;13.63;5.38;;;;;;;-2.59;100.00;99040.56;5023963;28;20026;-72
2023/03/09 05:28:30;;;;;;;14.13;6.18;;;;;;;-2.63;100.00;99039.94;5027941;28;20422;-70
2023/03/09 05:30:56;;;;;;;14.27;5.72;;;;;;;-2.63;100.00;99041.75;5027798;28;20434;-71
2023/03/09 05:33:22;;;;;;;11.18;5.30;;;;;;;-2.63;100.00;99039.13;5044308;28;20104;-72
2023/03/09 05:35:49;;;;;;;18.05;6.10;;;;;;;-2.66;100.00;99042.81;5043963;28;20044;-70
2023/03/09 05:38:14;;;;;;;12.70;5.47;;;;;;;-2.65;100.00;99044.47;5027580;28;20482;-70
2023/03/09 05:40:40;;;;;;;11.93;5.38;;;;;;;-2.67;100.00;99049.00;5027155;28;20123;-70
2023/03/09 05:43:08;;;;;;;13.20;5.15;;;;;;;-2.72;100.00;99034.63;5042883;28;20025;-70
2023/03/09 05:45:34;;;;;;;14.35;5.65;;;;;;;-2.76;100.00;99042.72;5026598;28;20068;-71
2023/03/09 05:47:59;;;;;;;13.98;5.78;;;;;;;-2.76;100.00;99045.31;5045574;28;20473;-72
2023/03/09 05:50:25;;;;;;;16.77;5.63;;;;;;;-2.74;100.00;99041.75;5027303;28;20123;-70
2023/03/09 05:52:50;;;;;;;12.73;5.13;;;;;;;-2.76;100.00;99044.50;5027542;28;20804;-71
2023/03/09 05:55:17;;;;;;;11.68;5.65;;;;;;;-2.75;100.00;99043.53;5026940;28;20033;-72
2023/03/09 05:57:44;;;;;;;12.43;5.10;;;;;;;-2.76;100.00;99049.72;5045075;28;20518;-72
2023/03/09 06:00:10;;;;;;;11.13;5.38;;;;;;;-2.75;100.00;99056.59;5043963;28;20033;-73
2023/03/09 06:02:38;;;;;;;13.75;5.80;;;;;;;-2.70;100.00;99067.50;5027922;28;20040;-71
2023/03/09 06:05:04;;;;;;;12.50;5.80;;;;;;;-2.71;100.00;99071.09;5046660;28;20120;-72
2023/03/09 06:07:30;;;;;;;10.45;5.07;;;;;;;-2.79;100.00;99063.84;5047983;28;20043;-71
2023/03/09 06:09:55;;;;;;;14.55;6.53;;;;;;;-2.78;100.00;99068.09;5031316;28;20163;-73
2023/03/09 06:12:25;;;;;;;15.98;6.07;;;;;;;-2.71;100.00;99072.88;5052782;28;20517;-70
2023/03/09 06:14:54;;;;;;;10.30;5.22;;;;;;;-2.68;100.00;99085.69;5031212;28;20025;-74
2023/03/09 06:17:24;;;;;;;13.38;5.15;;;;;;;-2.71;100.00;99083.31;5048105;28;20601;-71
2023/03/09 06:19:49;;;;;;;11.38;5.43;;;;;;;-2.68;100.00;99083.06;5047772;28;20040;-70
2023/03/09 06:22:16;;;;;;;15.35;6.38;;;;;;;-2.69;100.00;99092.69;5031057;28;20590;-70
2023/03/09 06:24:42;;;;;;;11.55;5.50;;;;;;;-2.67;100.00;99090.81;5048709;28;20067;-72
2023/03/09 06:27:08;;;;;;;16.48;4.82;;;;;;;-2.63;100.00;99101.84;5047326;28;20043;-71
2023/03/09 06:29:36;;;;;;;12.88;5.90;;;;;;;-2.65;100.00;99094.09;5031051;28;20808;-73
2023/03/09 06:32:01;;;;;;;16.95;5.90;;;;;;;-2.60;100.00;99102.44;5047233;28;20052;-74
2023/03/09 06:34:30;;;;;;;16.08;6.68;;;;;;;-2.55;100.00;99115.97;5030839;28;20044;-71
2023/03/09 06:36:57;;;;;;;12.43;5.70;;;;;;;-2.43;100.00;99123.81;5028037;28;20031;-72
2023/03/09 06:39:22;;;;;;;18.63;6.63;;;;;;;-2.23;100.00;99136.13;5028449;28;20032;-72
2023/03/09 06:41:48;;;;;;;28.35;7.28;;;;;;;-2.02;100.00;99146.69;5030023;28;20036;-70
2023/03/09 06:44:26;;;;;;;11.80;5.53;;;;;;;-1.79;100.00;99144.03;5030600;28;20561;-75
2023/03/09 06:46:53;;;;;;;12.05;5.68;;;;;;;-1.64;100.00;99152.44;5038000;28;20037;-70
2023/03/09 06:49:21;;;;;;;14.38;6.47;;;;;;;-1.44;100.00;99158.69;5046913;28;20090;-72
2023/03/09 06:51:46;;;;;;;22.73;7.38;;;;;;;-1.34;100.00;99143.88;5030439;28;20119;-75
2023/03/09 06:54:14;;;;;;;13.73;5.65;;;;;;;-1.21;100.00;99139.31;5030465;28;20626;-70
2023/03/09 06:56:43;;;;;;;15.15;6.50;;;;;;;-1.15;100.00;99130.09;5030464;28;20032;-73
2023/03/09 06:59:08;;;;;;;21.13;7.35;;;;;;;-1.06;100.00;99130.16;5029794;28;20035;-70
2023/03/09 07:01:34;;;;;;;12.35;5.75;;;;;;;-0.98;100.00;99126.91;5030244;28;20490;-70
2023/03/09 07:04:00;;;;;;;16.02;7.85;;;;;;;-0.94;100.00;99117.81;5047148;28;20421;-71
2023/03/09 07:06:26;;;;;;;;;;;;;;;-0.88;100.00;99117.31;5029998;28;20569;-73
2023/03/09 07:08:52;;;;;;;18.08;6.90;;;;;;;-0.78;100.00;99113.91;5048136;28;20310;-71
2023/03/09 07:11:17;;;;;;;18.73;6.72;;;;;;;-0.70;100.00;99112.31;5047851;28;20032;-70
2023/03/09 07:13:43;;;;;;;16.75;6.35;;;;;;;-0.65;100.00;99109.31;5048167;28;20060;-72
2023/03/09 07:16:08;;;;;;;18.45;6.30;;;;;;;-0.58;100.00;99115.69;5045300;28;20086;-70
2023/03/09 07:18:34;;;;;;;17.85;6.72;;;;;;;-0.55;100.00;99109.34;5048853;28;20032;-72
2023/03/09 07:21:01;;;;;;;16.42;6.93;;;;;;;-0.47;100.00;99110.34;5048484;28;20132;-72
2023/03/09 07:23:28;;;;;;;16.80;7.50;;;;;;;-0.42;100.00;99107.34;5030167;28;20048;-73
2023/03/09 07:25:54;;;;;;;17.83;7.70;;;;;;;-0.36;100.00;99103.34;5047540;28;20119;-71
2023/03/09 07:28:19;;;;;;;22.05;8.45;;;;;;;-0.29;100.00;99099.22;5046408;28;20183;-74
2023/03/09 07:30:45;;;;;;;18.10;8.27;;;;;;;-0.24;100.00;99086.53;5028439;28;20465;-72
2023/03/09 07:33:10;;;;;;;23.73;8.98;;;;;;;-0.19;100.00;99084.31;5026642;28;20047;-72
2023/03/09 07:35:38;;;;;;;20.35;8.70;;;;;;;-0.09;100.00;99082.56;5042084;28;20134;-73
2023/03/09 07:38:04;;;;;;;26.80;11.27;;;;;;;0.00;100.00;99073.06;5027697;28;20037;-73
2023/03/09 07:40:29;;;;;;;22.58;10.07;;;;;;;0.06;100.00;99050.69;5044618;28;20367;-74
2023/03/09 07:42:54;;;;;;;19.35;8.18;;;;;;;0.13;100.00;99039.50;5029061;28;20505;-74
2023/03/09 07:45:28;;;;;;;21.15;7.15;;;;;;;0.18;100.00;99012.84;5027798;28;20021;-73
2023/03/09 07:47:53;;;;;;;15.45;7.70;;;;;;;0.32;100.00;98998.47;5044570;28;20051;-74
2023/03/09 07:50:19;;;;;;;14.55;6.97;;;;;;;0.39;100.00;98987.25;5028681;28;20108;-73
2023/03/09 07:52:45;;;;;;;12.20;6.82;;;;;;;0.51;100.00;98981.88;5041371;28;20406;-73
2023/03/09 07:55:11;;;;;;;17.92;6.95;;;;;;;0.43;100.00;98943.19;5044042;28;20025;-72
2023/03/09 07:57:39;;;;;;;18.52;7.50;;;;;;;0.35;100.00;98904.53;5025005;28;20075;-73
2023/03/09 08:00:08;;;;;;;16.98;6.88;;;;;;;0.63;100.00;98907.19;5025910;28;20131;-72
2023/03/09 08:02:36;;;;;;;15.38;6.82;;;;;;;0.81;100.00;98889.69;5042276;28;20502;-70
2023/03/09 08:05:02;;;;;;;14.70;6.50;;;;;;;0.92;100.00;98880.81;5043825;28;20056;-73
2023/03/09 08:07:27;;;;;;;19.48;7.65;;;;;;;0.81;100.00;98824.00;5043312;28;20483;-74
2023/03/09 08:09:52;;;;;;;11.30;6.25;;;;;;;0.98;100.00;98801.38;5043203;28;20108;-74
2023/03/09 08:12:18;;;;;;;14.73;7.13;;;;;;;0.79;100.00;98701.66;5047266;28;20025;-74
2023/03/09 08:14:43;;;;;;;17.67;6.27;;;;;;;0.70;100.00;98640.34;5024628;28;20773;-74
2023/03/09 08:17:08;;;;;;;15.75;7.57;;;;;;;0.89;100.00;98639.38;5023375;28;20342;-74
2023/03/09 08:19:34;;;;;;;19.17;6.80;;;;;;;0.75;100.00;98579.47;5041647;28;20025;-74
2023/03/09 08:22:00;;;;;;;18.67;6.85;;;;;;;1.07;100.00;98573.63;5045905;28;20287;-73
2023/03/09 08:24:25;;;;;;;17.73;7.50;;;;;;;0.81;100.00;98497.44;5041972;28;20534;-73
2023/03/09 08:26:50;;;;;;;25.23;9.98;;;;;;;1.17;100.00;98553.34;5040895;28;20640;-74
2023/03/09 08:29:16;;;;;;;15.50;8.65;;;;;;;0.99;100.00;98492.97;5043589;28;20035;-72
2023/03/09 08:31:41;;;;;;;21.97;10.23;;;;;;;1.13;100.00;98504.69;5042257;28;20582;-70
2023/03/09 08:34:07;;;;;;;22.10;8.38;;;;;;;0.94;100.00;98432.19;5027982;28;20303;-73
2023/03/09 08:36:32;;;;;;;18.27;10.33;;;;;;;1.31;100.00;98466.97;5041828;28;20029;-74
2023/03/09 08:38:58;;;;;;;24.63;9.48;;;;;;;1.55;100.00;98468.88;5043332;28;20416;-73
2023/03/09 08:41:24;;;;;;;19.73;7.10;;;;;;;1.77;100.00;98441.09;5043215;28;20033;-75
2023/03/09 08:43:50;;;;;;;25.23;7.30;;;;;;;1.98;100.00;98417.75;5047073;28;20302;-74
2023/03/09 08:46:16;;;;;;;16.40;6.95;;;;;;;1.39;100.00;98267.19;5022815;28;20591;-73
2023/03/09 08:48:42;;;;;;;12.45;6.50;;;;;;;1.92;100.00;98341.28;5042255;28;20041;-72
2023/03/09 08:51:09;;;;;;;16.40;7.40;;;;;;;2.02;100.00;98313.81;5043109;28;20028;-74
2023/03/09 08:53:35;;;;;;;19.58;7.50;;;;;;;1.99;100.00;98226.47;5041858;28;20341;-73
2023/03/09 08:56:06;;;;;;;18.20;6.95;;;;;;;1.98;100.00;98146.72;5027920;28;20027;-73
2023/03/09 08:58:33;;;;;;;17.00;7.35;;;;;;;1.98;100.00;98115.13;5023595;28;20485;-72
2023/03/09 09:01:03;;;;;;;16.67;7.57;;;;;;;2.50;100.00;98145.28;5024605;28;20058;-73
2023/03/09 09:03:30;;;;;;;14.60;6.90;;;;;;;4.11;100.00;98286.69;5026501;28;20036;-74
2023/03/09 09:05:56;;;;;;;16.33;7.15;;;;;;;3.43;100.00;97861.16;5024957;28;20363;-74
2023/03/09 09:08:22;;;;;;;18.10;6.57;;;;;;;3.67;100.00;97773.69;5042769;28;20150;-74
2023/03/09 09:10:47;;;;;;;14.75;7.22;;;;;;;4.41;100.00;97818.09;5007378;28;20372;-75
2023/03/09 09:13:13;;;;;;;14.77;7.50;;;;;;;3.58;100.00;97336.94;5024844;28;20504;-74
2023/03/09 09:15:40;;;;;;;19.48;7.68;;;;;;;3.48;100.00;97468.41;5023595;28;20295;-75
2023/03/09 09:18:06;;;;;;;13.18;7.25;;;;;;;3.72;100.00;97435.41;5014240;28;20059;-70
2023/03/09 09:20:32;;;;;;;13.40;6.53;;;;;;;5.04;100.00;97706.09;5043432;28;20405;-74
2023/03/09 09:22:58;;;;;;;13.55;7.03;;;;;;;5.69;100.00;97460.16;5026833;28;20398;-74
2023/03/09 09:25:24;;;;;;;12.50;6.93;;;;;;;6.10;100.00;97274.31;5024514;28;20056;-74
2023/03/09 09:27:50;;;;;;;13.60;6.35;;;;;;;5.69;100.00;96877.91;5040291;28;20021;-74
2023/03/09 09:30:17;;;;;;;11.02;6.75;;;;;;;6.64;100.00;97090.88;5024773;28;20037;-74
2023/03/09 09:32:44;;;;;;;16.17;6.90;;;;;;;6.84;100.00;96846.66;5041330;28;20076;-74
2023/03/09 09:35:10;;;;;;;15.27;7.70;;;;;;;6.44;96.22;96500.31;5026606;28;20033;-73
2023/03/09 09:37:36;;;;;;;12.70;7.15;;;;;;;6.04;96.67;96539.09;5041401;28;20032;-73
2023/03/09 09:40:02;;;;;;;17.63;7.87;;;;;;;5.13;96.91;96483.25;5010470;28;20062;-70
2023/03/09 09:42:39;;;;;;;16.40;8.10;;;;;;;6.50;97.32;96884.38;5014621;28;20094;-74
2023/03/09 09:45:23;;;;;;;19.20;8.40;;;;;;;5.93;93.76;96375.78;5039440;28;20067;-74
2023/03/09 09:47:48;;;;;;;12.05;7.15;;;;;;;5.98;94.11;96544.53;5041473;28;20057;-74
2023/03/09 09:50:14;;;;;;;12.83;7.23;;;;;;;6.45;92.70;96573.47;5043825;28;20427;-73
2023/03/09 09:53:17;;;;;;;15.95;7.35;;;;;;;7.44;90.52;96586.16;5023106;28;20036;-74
2023/03/09 09:55:44;;;;;;;17.02;6.82;;;;;;;6.17;89.27;96304.97;5042365;28;20509;-75
2023/03/09 09:58:19;;;;;;;;;;;;;;;5.44;88.09;95999.88;5042649;28;20112;-75
2023/03/09 10:00:50;;;;;;;15.88;7.07;;;;;;;4.63;90.50;96212.44;5041554;28;19917;-73
2023/03/09 10:03:32;;;;;;;12.07;7.55;;;;;;;6.34;92.13;96908.91;5026590;28;20463;-75
2023/03/09 10:05:57;;;;;;;15.30;7.95;;;;;;;6.66;88.76;96620.47;5036367;28;20086;-75
2023/03/09 10:08:28;;;;;;;14.00;7.43;;;;;;;6.58;86.40;96363.81;5040780;28;20025;-73
2023/03/09 10:10:57;;;;;;;12.98;7.30;;;;;;;5.03;85.45;95841.56;5029040;28;20394;-74
2023/03/09 10:13:33;;;;;;;14.88;7.28;;;;;;;6.26;87.97;96634.56;5026183;28;20053;-73
2023/03/09 10:16:04;;;;;;;11.02;7.20;;;;;;;5.65;85.09;96067.06;5037969;28;20289;-74
2023/03/09 10:18:37;;;;;;;14.77;7.32;;;;;;;6.29;86.42;96511.44;5042050;28;20033;-75
2023/03/09 10:21:06;;;;;;;13.80;6.40;;;;;;;5.40;85.51;96139.72;5039360;28;20136;-75
2023/03/09 10:23:34;;;;;;;11.40;6.53;;;;;;;6.34;87.64;96732.22;5040584;28;20040;-71
2023/03/09 10:26:18;;;;;;;9.45;5.55;;;;;;;7.25;86.38;96842.16;5041453;28;20122;-75
2023/03/09 10:28:47;;;;;;;9.05;4.57;;;;;;;7.26;82.97;96435.22;5024648;28;20061;-75
2023/03/09 10:31:27;;;;;;;9.75;5.35;;;;;;;7.73;81.82;96464.72;5041646;28;20021;-75
2023/03/09 10:34:11;;;;;;;12.95;6.78;;;;;;;8.28;78.97;96209.66;5041381;28;20036;-73
2023/03/09 10:36:45;;;;;;;12.43;6.32;;;;;;;7.00;78.62;95909.91;5039820;28;20047;-73
2023/03/09 10:39:15;;;;;;;12.88;5.68;;;;;;;6.30;77.68;95617.91;5044159;28;20037;-75
2023/03/09 10:41:41;;;;;;;12.68;6.03;;;;;;;6.33;78.85;95983.63;5024929;28;20032;-75
2023/03/09 10:44:06;;;;;;;14.07;6.90;;;;;;;3.99;81.76;95760.47;5025275;28;20493;-71
2023/03/09 10:46:59;;;;;;;12.38;6.13;;;;;;;4.82;85.02;96648.25;5025057;28;20190;-71
2023/03/09 10:49:26;;;;;;;14.57;6.43;;;;;;;5.92;84.70;96936.22;5042050;28;20037;-74
2023/03/09 10:52:00;;;;;;;9.55;6.00;;;;;;;5.98;81.73;96526.00;5045609;28;20041;-71
2023/03/09 10:54:37;;;;;;;10.70;4.93;;;;;;;5.31;78.49;95852.16;5029745;28;20147;-73
2023/03/09 10:57:20;;;;;;;6.68;4.38;;;;;;;5.62;79.38;96179.47;5040472;28;20029;-75
2023/03/09 11:00:05;;;;;;;11.85;5.70;;;;;;;6.12;80.21;96545.84;5027638;28;20041;-75
2023/03/09 11:02:35;;;;;;;11.20;5.20;;;;;;;5.10;78.75;95954.22;5028801;28;20118;-74
2023/03/09 11:05:18;;;;;;;8.75;4.97;;;;;;;6.04;79.98;96533.81;5040042;28;20453;-75
2023/03/09 11:07:50;;;;;;;8.57;5.10;;;;;;;5.79;78.51;96242.97;5047235;28;20051;-75
2023/03/09 11:10:32;;;;;;;12.63;4.85;;;;;;;4.64;78.62;95934.06;5029763;28;20064;-75
2023/03/09 11:12:58;;;;;;;8.85;4.88;;;;;;;4.78;78.07;96012.97;5023322;28;20068;-74
2023/03/09 11:15:28;;;;;;;;;;;;;;;5.10;78.45;96155.09;5046449;28;20104;-74
2023/03/09 11:17:55;;;;;;;12.27;4.90;;;;;;;5.58;79.09;96411.16;5052400;28;20132;-75
2023/03/09 11:20:39;;;;;;;11.25;6.03;;;;;;;5.64;78.07;96272.63;5030645;28;20537;-73
2023/03/09 11:23:17;;;;;;;12.45;5.90;;;;;;;5.70;77.13;96172.97;5047745;28;20075;-74
2023/03/09 11:26:04;;;;;;;11.52;6.25;;;;;;;5.11;80.43;96500.41;5028176;28;20054;-73
2023/03/09 11:28:51;;;;;;;10.32;6.50;;;;;;;5.59;79.17;96499.25;5046263;28;20045;-74